createdAt,value
2024-04-16T00:02:15.035Z,19.59
2024-04-16T00:04:42.172Z,19.42
2024-04-16T00:07:09.408Z,19.41
2024-04-16T00:09:36.521Z,19.30
2024-04-16T00:12:03.685Z,19.06
2024-04-16T00:14:46.184Z,19.01
2024-04-16T00:17:13.618Z,18.90
2024-04-16T00:19:40.808Z,18.97
2024-04-16T00:22:07.954Z,18.91
2024-04-16T00:24:35.207Z,18.82
2024-04-16T00:27:02.325Z,18.79
2024-04-16T00:29:29.371Z,18.72
2024-04-16T00:31:56.399Z,18.60
2024-04-16T00:34:23.492Z,18.61
2024-04-16T00:36:50.546Z,18.55
2024-04-16T00:39:17.624Z,18.52
2024-04-16T00:41:44.747Z,18.42
2024-04-16T00:44:11.869Z,18.52
2024-04-16T00:46:40.492Z,18.42
2024-04-16T00:49:10.841Z,18.45
2024-04-16T00:51:37.922Z,18.43
2024-04-16T00:54:05.673Z,18.44
2024-04-16T00:56:36.241Z,18.35
2024-04-16T00:59:04.906Z,18.24
2024-04-16T01:01:32.409Z,18.17
2024-04-16T01:03:59.997Z,18.29
2024-04-16T01:06:27.471Z,18.08
2024-04-16T01:08:54.481Z,18.38
2024-04-16T01:11:29.682Z,18.28
2024-04-16T01:13:57.152Z,18.17
2024-04-16T01:16:24.957Z,18.14
2024-04-16T01:18:52.020Z,18.06
2024-04-16T01:21:19.055Z,17.98
2024-04-16T01:23:46.101Z,17.90
2024-04-16T01:26:13.196Z,17.98
2024-04-16T01:28:40.273Z,18.00
2024-04-16T01:31:07.363Z,18.08
2024-04-16T01:33:34.406Z,18.04
2024-04-16T01:36:01.632Z,17.93
2024-04-16T01:38:28.663Z,17.85
2024-04-16T01:40:55.785Z,17.82
2024-04-16T01:43:22.890Z,17.66
2024-04-16T01:45:49.978Z,17.63
2024-04-16T01:48:17.047Z,17.72
2024-04-16T01:50:44.100Z,17.69
2024-04-16T01:53:11.366Z,17.63
2024-04-16T01:55:39.983Z,17.68
2024-04-16T01:58:07.323Z,17.73
2024-04-16T02:00:34.436Z,17.67
2024-04-16T02:03:03.959Z,17.77
2024-04-16T02:05:31.122Z,17.71
2024-04-16T02:07:58.168Z,17.67
2024-04-16T02:10:25.293Z,17.83
2024-04-16T02:12:52.349Z,17.91
2024-04-16T02:15:20.123Z,17.93
2024-04-16T02:17:47.296Z,17.85
2024-04-16T02:20:14.473Z,17.76
2024-04-16T02:22:41.640Z,17.57
2024-04-16T02:25:11.914Z,17.32
2024-04-16T02:27:39.242Z,17.20
2024-04-16T02:30:07.158Z,17.11
2024-04-16T02:32:34.235Z,17.17
2024-04-16T02:35:01.314Z,17.09
2024-04-16T02:37:28.442Z,17.12
2024-04-16T02:39:55.492Z,17.13
2024-04-16T02:42:22.594Z,17.35
2024-04-16T02:44:49.707Z,17.50
2024-04-16T02:47:16.821Z,17.51
2024-04-16T02:49:43.794Z,17.58
2024-04-16T02:52:10.857Z,17.61
2024-04-16T02:54:37.955Z,17.46
2024-04-16T02:57:05.339Z,17.41
2024-04-16T02:59:32.352Z,17.40
2024-04-16T03:01:59.464Z,17.62
2024-04-16T03:04:26.530Z,17.57
2024-04-16T03:06:53.639Z,17.52
2024-04-16T03:09:20.760Z,17.48
2024-04-16T03:11:47.811Z,17.62
2024-04-16T03:14:16.697Z,17.49
2024-04-16T03:16:43.853Z,17.36
2024-04-16T03:19:10.996Z,17.66
2024-04-16T03:21:38.033Z,17.45
2024-04-16T03:24:05.478Z,17.49
2024-04-16T03:26:32.553Z,17.46
2024-04-16T03:28:59.712Z,17.57
2024-04-16T03:31:26.769Z,17.71
2024-04-16T03:33:53.843Z,17.57
2024-04-16T03:36:20.823Z,17.60
2024-04-16T03:38:47.912Z,17.36
2024-04-16T03:41:14.928Z,17.16
2024-04-16T03:43:42.012Z,17.15
2024-04-16T03:46:09.254Z,17.30
2024-04-16T03:48:36.359Z,17.24
2024-04-16T03:51:03.671Z,17.33
2024-04-16T03:53:32.605Z,17.24
2024-04-16T03:56:01.566Z,17.24
2024-04-16T03:58:29.048Z,17.33
2024-04-16T04:01:02.505Z,17.46
2024-04-16T04:03:29.924Z,17.46
2024-04-16T04:05:57.638Z,17.37
2024-04-16T04:08:25.235Z,17.54
2024-04-16T04:10:52.498Z,17.47
2024-04-16T04:13:19.738Z,17.59
2024-04-16T04:15:46.871Z,17.50
2024-04-16T04:18:14.177Z,17.39
2024-04-16T04:20:41.418Z,17.73
2024-04-16T04:23:09.000Z,17.77
2024-04-16T04:25:36.203Z,17.82
2024-04-16T04:28:03.623Z,17.72
2024-04-16T04:30:31.815Z,17.57
2024-04-16T04:32:58.893Z,17.63
2024-04-16T04:35:26.150Z,17.70
2024-04-16T04:37:53.535Z,17.63
2024-04-16T04:40:20.801Z,17.70
2024-04-16T04:42:49.988Z,17.62
2024-04-16T04:45:17.097Z,17.57
2024-04-16T04:47:44.321Z,17.53
2024-04-16T04:50:11.532Z,17.70
2024-04-16T04:52:38.855Z,17.81
2024-04-16T04:55:07.009Z,17.92
2024-04-16T04:57:34.079Z,17.84
2024-04-16T05:00:01.204Z,17.78
2024-04-16T05:02:28.393Z,17.78
2024-04-16T05:04:55.593Z,17.80
2024-04-16T05:07:23.160Z,17.84
2024-04-16T05:09:52.840Z,17.90
2024-04-16T05:12:19.858Z,17.94
2024-04-16T05:14:47.175Z,18.02
2024-04-16T05:17:15.425Z,18.10
2024-04-16T05:19:46.877Z,18.15
2024-04-16T05:22:22.795Z,18.14
2024-04-16T05:24:50.096Z,18.13
2024-04-16T05:27:17.227Z,18.18
2024-04-16T05:29:44.632Z,18.25
2024-04-16T05:32:14.524Z,18.27
2024-04-16T05:34:41.767Z,18.27
2024-04-16T05:37:12.387Z,18.30
2024-04-16T05:39:39.558Z,18.35
2024-04-16T05:42:06.861Z,18.45
2024-04-16T05:44:34.102Z,18.59
2024-04-16T05:47:01.130Z,18.75
2024-04-16T05:49:28.414Z,18.84
2024-04-16T05:51:56.212Z,18.95
2024-04-16T05:54:23.702Z,19.03
2024-04-16T05:56:51.038Z,19.07
2024-04-16T05:59:18.363Z,19.13
2024-04-16T06:01:45.693Z,19.11
2024-04-16T06:04:13.084Z,19.13
2024-04-16T06:06:40.420Z,19.22
2024-04-16T06:09:07.628Z,19.30
2024-04-16T06:11:34.897Z,19.40
2024-04-16T06:14:02.289Z,19.47
2024-04-16T06:16:29.450Z,19.56
2024-04-16T06:18:56.582Z,19.65
2024-04-16T06:21:23.898Z,19.57
2024-04-16T06:23:51.572Z,19.58
2024-04-16T06:26:21.782Z,19.60
2024-04-16T06:28:48.925Z,19.64
2024-04-16T06:31:18.911Z,19.72
2024-04-16T06:33:46.235Z,19.80
2024-04-16T06:36:13.815Z,19.91
2024-04-16T06:38:41.020Z,20.01
2024-04-16T06:41:08.142Z,20.08
2024-04-16T06:43:35.500Z,20.09
2024-04-16T06:46:03.292Z,20.15
2024-04-16T06:48:35.563Z,20.28
2024-04-16T06:51:03.612Z,20.41
2024-04-16T06:53:30.791Z,20.44
2024-04-16T06:56:05.815Z,20.42
2024-04-16T06:58:33.284Z,20.36
2024-04-16T07:01:01.621Z,20.36
2024-04-16T07:03:29.595Z,20.45
2024-04-16T07:05:56.715Z,20.54
2024-04-16T07:08:24.205Z,20.56
2024-04-16T07:10:51.589Z,20.59
2024-04-16T07:13:20.022Z,20.69
2024-04-16T07:15:47.499Z,20.85
2024-04-16T07:18:14.901Z,21.07
2024-04-16T07:20:52.324Z,21.35
2024-04-16T07:23:19.451Z,21.52
2024-04-16T07:25:46.804Z,21.67
2024-04-16T07:28:14.227Z,21.82
2024-04-16T07:30:48.043Z,21.94
2024-04-16T07:33:17.233Z,22.00
2024-04-16T07:35:47.963Z,22.05
2024-04-16T07:38:15.889Z,22.09
2024-04-16T07:40:43.139Z,22.21
2024-04-16T07:43:10.295Z,22.27
2024-04-16T07:45:40.676Z,22.45
2024-04-16T07:48:08.225Z,22.50
2024-04-16T07:50:35.423Z,22.66
2024-04-16T07:53:02.535Z,22.78
2024-04-16T07:55:29.682Z,22.98
2024-04-16T07:57:57.508Z,23.18
2024-04-16T08:00:29.758Z,23.34
2024-04-16T08:02:56.972Z,23.49
2024-04-16T08:05:24.154Z,23.69
2024-04-16T08:07:51.614Z,23.87
2024-04-16T08:10:19.149Z,24.02
2024-04-16T08:12:46.364Z,24.09
2024-04-16T08:15:14.153Z,24.15
2024-04-16T08:17:41.489Z,24.36
2024-04-16T08:20:10.258Z,24.52
2024-04-16T08:22:38.095Z,24.59
2024-04-16T08:25:05.743Z,24.73
2024-04-16T08:27:33.259Z,24.87
2024-04-16T08:30:00.464Z,24.96
2024-04-16T08:32:27.762Z,25.06
2024-04-16T08:34:55.092Z,24.86
2024-04-16T08:37:22.362Z,24.78
2024-04-16T08:39:49.794Z,24.79
2024-04-16T08:42:19.256Z,24.90
2024-04-16T08:44:47.247Z,25.02
2024-04-16T08:47:15.550Z,24.99
2024-04-16T08:49:44.690Z,24.93
2024-04-16T08:52:13.979Z,24.91
2024-04-16T08:54:42.955Z,25.00
2024-04-16T08:57:10.003Z,25.19
2024-04-16T08:59:37.059Z,25.29
2024-04-16T09:02:04.880Z,25.33
2024-04-16T09:04:38.065Z,25.29
2024-04-16T09:07:07.216Z,25.28
2024-04-16T09:09:35.457Z,25.16
2024-04-16T09:12:02.702Z,25.05
2024-04-16T09:14:29.913Z,24.94
2024-04-16T09:16:57.328Z,25.16
2024-04-16T09:19:28.726Z,24.83
2024-04-16T09:22:00.751Z,24.84
2024-04-16T09:24:27.966Z,24.95
2024-04-16T09:26:55.102Z,25.02
2024-04-16T09:29:28.576Z,25.05
2024-04-16T09:32:02.375Z,25.10
2024-04-16T09:34:30.561Z,25.15
2024-04-16T09:36:57.721Z,25.28
2024-04-16T09:39:25.466Z,25.38
2024-04-16T09:41:56.292Z,25.42
2024-04-16T09:44:26.211Z,25.47
2024-04-16T09:46:55.623Z,25.57
2024-04-16T09:49:26.603Z,25.60
2024-04-16T09:52:02.890Z,25.67
2024-04-16T09:54:31.302Z,25.68
2024-04-16T09:56:58.987Z,25.74
2024-04-16T09:59:26.902Z,25.78
2024-04-16T10:01:59.522Z,25.83
2024-04-16T10:04:28.197Z,25.93
2024-04-16T10:06:55.223Z,25.98
2024-04-16T10:09:22.615Z,26.06
2024-04-16T10:11:51.100Z,26.29
2024-04-16T10:14:21.385Z,26.59
2024-04-16T10:16:55.812Z,26.86
2024-04-16T10:19:23.077Z,27.00
2024-04-16T10:21:51.108Z,27.04
2024-04-16T10:24:19.719Z,27.07
2024-04-16T10:26:49.197Z,26.99
2024-04-16T10:29:18.035Z,26.99
2024-04-16T10:31:51.395Z,26.94
2024-04-16T10:34:23.148Z,27.06
2024-04-16T10:36:55.191Z,27.23
2024-04-16T10:39:29.610Z,27.30
2024-04-16T10:41:59.889Z,27.24
2024-04-16T10:44:28.844Z,27.00
2024-04-16T10:46:58.322Z,26.74
2024-04-16T10:49:28.542Z,26.54
2024-04-16T10:51:56.479Z,26.40
2024-04-16T10:54:23.657Z,26.30
2024-04-16T10:56:51.816Z,26.17
2024-04-16T10:59:19.472Z,26.04
2024-04-16T11:01:48.114Z,26.00
2024-04-16T11:04:20.472Z,26.00
2024-04-16T11:06:48.620Z,26.05
2024-04-16T11:09:17.121Z,26.02
2024-04-16T11:11:44.635Z,25.97
2024-04-16T11:14:13.078Z,25.98
2024-04-16T11:16:41.910Z,25.98
2024-04-16T11:19:09.464Z,26.00
2024-04-16T11:21:36.851Z,25.96
2024-04-16T11:24:05.733Z,25.96
2024-04-16T11:26:33.227Z,25.92
2024-04-16T11:29:03.379Z,25.80
2024-04-16T11:31:31.295Z,25.77
2024-04-16T11:33:59.342Z,25.84
2024-04-16T11:36:26.698Z,25.93
2024-04-16T11:38:54.277Z,26.00
2024-04-16T11:41:21.703Z,26.06
2024-04-16T11:43:49.118Z,26.16
2024-04-16T11:46:18.114Z,26.31
2024-04-16T11:48:46.700Z,26.45
2024-04-16T11:51:14.100Z,26.58
2024-04-16T11:53:41.935Z,26.78
2024-04-16T11:56:12.592Z,27.25
2024-04-16T11:58:41.543Z,27.74
2024-04-16T12:01:10.979Z,28.09
2024-04-16T12:03:38.294Z,28.30
2024-04-16T12:06:05.725Z,28.31
2024-04-16T12:08:32.886Z,28.19
2024-04-16T12:11:00.797Z,28.02
2024-04-16T12:13:27.917Z,28.05
2024-04-16T12:15:54.993Z,28.19
2024-04-16T12:18:22.166Z,28.34
2024-04-16T12:20:49.631Z,28.69
2024-04-16T12:23:16.756Z,28.93
2024-04-16T12:25:43.896Z,29.18
2024-04-16T12:28:11.226Z,29.33
2024-04-16T12:30:38.401Z,29.58
2024-04-16T12:33:14.460Z,29.75
2024-04-16T12:35:43.629Z,30.48
2024-04-16T12:38:10.783Z,31.02
2024-04-16T12:40:38.105Z,31.18
2024-04-16T12:43:05.713Z,31.23
2024-04-16T12:45:32.864Z,31.11
2024-04-16T12:48:00.048Z,31.13
2024-04-16T12:50:27.238Z,31.05
2024-04-16T12:52:54.430Z,31.03
2024-04-16T12:55:31.752Z,31.05
2024-04-16T12:58:09.052Z,31.06
2024-04-16T13:00:36.139Z,30.72
2024-04-16T13:03:03.311Z,30.26
2024-04-16T13:05:30.592Z,29.99
2024-04-16T13:07:57.779Z,29.77
2024-04-16T13:10:25.039Z,29.49
2024-04-16T13:12:52.208Z,29.27
2024-04-16T13:15:19.326Z,28.98
2024-04-16T13:17:46.448Z,28.67
2024-04-16T13:20:13.542Z,28.52
2024-04-16T13:22:40.764Z,28.39
2024-04-16T13:25:08.956Z,28.21
2024-04-16T13:27:36.164Z,27.86
2024-04-16T13:30:03.493Z,27.58
2024-04-16T13:32:30.712Z,27.42
2024-04-16T13:34:59.982Z,27.40
2024-04-16T13:37:27.758Z,27.34
2024-04-16T13:39:55.071Z,27.26
2024-04-16T13:42:22.212Z,27.24
2024-04-16T13:44:49.361Z,27.25
2024-04-16T13:47:18.430Z,27.21
2024-04-16T13:49:46.331Z,27.14
2024-04-16T13:52:13.990Z,27.02
2024-04-16T13:54:41.324Z,27.01
2024-04-16T13:57:08.370Z,26.93
2024-04-16T13:59:35.396Z,26.87
2024-04-16T14:02:04.094Z,26.86
2024-04-16T14:04:31.259Z,26.75
2024-04-16T14:06:58.348Z,26.67
2024-04-16T14:09:25.825Z,26.68
2024-04-16T14:11:53.012Z,26.67
2024-04-16T14:14:20.730Z,26.58
2024-04-16T14:16:48.021Z,26.49
2024-04-16T14:19:16.297Z,26.47
2024-04-16T14:21:44.736Z,26.65
2024-04-16T14:24:13.446Z,26.87
2024-04-16T14:26:40.517Z,26.89
2024-04-16T14:29:07.659Z,26.91
2024-04-16T14:31:34.767Z,26.89
2024-04-16T14:34:01.992Z,26.88
2024-04-16T14:36:29.117Z,26.80
2024-04-16T14:38:56.331Z,26.65
2024-04-16T14:41:23.381Z,26.54
2024-04-16T14:43:50.516Z,26.46
2024-04-16T14:46:18.068Z,26.35
2024-04-16T14:48:45.336Z,26.30
2024-04-16T14:51:12.541Z,26.18
2024-04-16T14:53:41.136Z,26.00
2024-04-16T14:56:08.234Z,25.92
2024-04-16T14:58:35.636Z,25.81
2024-04-16T15:01:02.840Z,25.64
2024-04-16T15:03:31.453Z,25.53
2024-04-16T15:05:58.743Z,25.39
2024-04-16T15:08:25.846Z,25.25
2024-04-16T15:10:52.974Z,25.16
2024-04-16T15:13:20.235Z,25.10
2024-04-16T15:16:00.322Z,25.03
2024-04-16T15:18:27.712Z,25.02
2024-04-16T15:20:55.895Z,24.99
2024-04-16T15:23:23.365Z,24.95
2024-04-16T15:25:51.318Z,24.90
2024-04-16T15:28:18.630Z,24.85
2024-04-16T15:30:46.501Z,24.79
2024-04-16T15:33:13.904Z,24.73
2024-04-16T15:36:07.100Z,24.72
2024-04-16T15:38:34.158Z,24.71
2024-04-16T15:41:01.263Z,24.69
2024-04-16T15:43:28.420Z,24.73
2024-04-16T15:45:55.553Z,24.82
2024-04-16T15:48:22.660Z,24.98
2024-04-16T15:50:52.796Z,25.13
2024-04-16T15:53:19.964Z,25.07
2024-04-16T15:55:50.486Z,24.92
2024-04-16T15:58:20.686Z,24.70
2024-04-16T16:00:47.798Z,24.53
2024-04-16T16:03:15.605Z,24.43
2024-04-16T16:05:46.861Z,24.27
2024-04-16T16:08:14.188Z,24.16
2024-04-16T16:10:44.596Z,24.07
2024-04-16T16:13:11.609Z,23.96
2024-04-16T16:15:38.672Z,23.91
2024-04-16T16:18:07.163Z,23.89
2024-04-16T16:20:35.970Z,23.85
2024-04-16T16:23:04.888Z,23.79
2024-04-16T16:25:34.107Z,23.69
2024-04-16T16:28:01.329Z,23.64
2024-04-16T16:30:28.440Z,23.58
2024-04-16T16:32:55.640Z,23.50
2024-04-16T16:35:23.419Z,23.44
2024-04-16T16:37:50.642Z,23.33
2024-04-16T16:40:17.751Z,23.26
2024-04-16T16:42:44.884Z,23.18
2024-04-16T16:45:11.946Z,23.08
2024-04-16T16:47:39.124Z,23.01
2024-04-16T16:50:06.646Z,22.96
2024-04-16T16:52:34.518Z,22.93
2024-04-16T16:55:01.925Z,22.89
2024-04-16T16:57:29.134Z,22.85
2024-04-16T16:59:56.231Z,22.80
2024-04-16T17:02:23.300Z,22.75
2024-04-16T17:04:50.584Z,22.66
2024-04-16T17:07:17.783Z,22.59
2024-04-16T17:09:44.882Z,22.55
2024-04-16T17:12:12.021Z,22.51
2024-04-16T17:14:41.707Z,22.49
2024-04-16T17:17:08.773Z,22.46
2024-04-16T17:19:35.890Z,22.48
2024-04-16T17:22:02.947Z,22.50
2024-04-16T17:24:30.025Z,22.55
2024-04-16T17:26:57.123Z,22.52
2024-04-16T17:29:24.357Z,22.53
2024-04-16T17:31:51.534Z,22.44
2024-04-16T17:34:18.915Z,22.39
2024-04-16T17:36:48.172Z,22.35
2024-04-16T17:39:15.188Z,22.30
2024-04-16T17:41:42.246Z,22.22
2024-04-16T17:44:09.327Z,22.17
2024-04-16T17:46:38.786Z,22.12
2024-04-16T17:49:05.917Z,22.07
2024-04-16T17:51:32.950Z,22.03
2024-04-16T17:54:00.014Z,22.04
2024-04-16T17:56:27.119Z,21.98
2024-04-16T17:58:54.245Z,21.92
2024-04-16T18:01:21.500Z,21.89
2024-04-16T18:03:49.830Z,21.85
2024-04-16T18:06:16.971Z,21.85
2024-04-16T18:08:44.037Z,21.86
2024-04-16T18:11:13.408Z,21.88
2024-04-16T18:13:44.079Z,21.92
2024-04-16T18:16:11.192Z,21.91
2024-04-16T18:18:38.332Z,21.85
2024-04-16T18:21:05.705Z,21.78
2024-04-16T18:23:34.614Z,21.70
2024-04-16T18:26:01.801Z,21.65
2024-04-16T18:28:28.998Z,21.61
2024-04-16T18:30:56.234Z,21.68
2024-04-16T18:33:23.557Z,21.69
2024-04-16T18:35:50.692Z,21.72
2024-04-16T18:38:20.059Z,21.79
2024-04-16T18:40:47.193Z,21.76
2024-04-16T18:43:14.344Z,21.77
2024-04-16T18:45:45.069Z,21.80
2024-04-16T18:48:12.920Z,21.76
2024-04-16T18:50:46.374Z,21.59
2024-04-16T18:53:13.985Z,21.54
2024-04-16T18:55:41.069Z,21.44
2024-04-16T18:58:08.352Z,21.42
2024-04-16T19:00:36.788Z,21.42
2024-04-16T19:03:04.104Z,21.45
2024-04-16T19:05:31.224Z,21.47
2024-04-16T19:07:59.604Z,21.46
2024-04-16T19:10:26.678Z,21.48
2024-04-16T19:12:53.902Z,21.48
2024-04-16T19:15:21.001Z,21.44
2024-04-16T19:17:48.141Z,21.30
2024-04-16T19:20:15.363Z,21.59
2024-04-16T19:22:42.572Z,21.46
2024-04-16T19:25:09.675Z,21.12
2024-04-16T19:27:36.746Z,21.07
2024-04-16T19:30:04.197Z,20.90
2024-04-16T19:32:34.323Z,20.70
2024-04-16T19:35:01.453Z,20.60
2024-04-16T19:37:28.594Z,20.54
2024-04-16T19:39:55.749Z,20.52
2024-04-16T19:42:22.822Z,20.33
2024-04-16T19:44:49.848Z,20.27
2024-04-16T19:47:16.959Z,20.27
2024-04-16T19:49:44.121Z,20.22
2024-04-16T19:52:11.149Z,20.12
2024-04-16T19:54:39.040Z,20.14
2024-04-16T19:57:06.853Z,20.13
2024-04-16T19:59:34.818Z,19.95
2024-04-16T20:02:01.974Z,19.69
2024-04-16T20:04:29.133Z,19.63
2024-04-16T20:06:56.303Z,19.65
2024-04-16T20:09:23.453Z,19.64
2024-04-16T20:11:50.592Z,19.48
2024-04-16T20:14:17.696Z,19.39
2024-04-16T20:16:44.730Z,19.31
2024-04-16T20:19:12.484Z,19.27
2024-04-16T20:21:39.535Z,19.30
2024-04-16T20:24:07.131Z,19.19
2024-04-16T20:26:34.143Z,19.01
2024-04-16T20:29:01.263Z,19.07
2024-04-16T20:31:28.308Z,19.12
2024-04-16T20:33:56.385Z,19.08
2024-04-16T20:36:23.425Z,19.10
2024-04-16T20:38:50.538Z,19.01
2024-04-16T20:41:17.592Z,18.92
2024-04-16T20:43:44.737Z,18.79
2024-04-16T20:46:12.037Z,18.74
2024-04-16T20:48:40.741Z,18.65
2024-04-16T20:51:09.608Z,18.67
2024-04-16T20:53:36.735Z,18.59
2024-04-16T20:56:04.248Z,18.76
2024-04-16T20:58:31.483Z,18.66
2024-04-16T21:00:59.421Z,18.72
2024-04-16T21:03:26.758Z,18.51
2024-04-16T21:05:53.849Z,18.51
2024-04-16T21:08:21.015Z,18.55
2024-04-16T21:10:48.274Z,18.62
2024-04-16T21:13:15.474Z,18.69
2024-04-16T21:15:45.106Z,18.70
2024-04-16T21:18:12.229Z,18.69
2024-04-16T21:20:39.314Z,18.78
2024-04-16T21:23:06.408Z,18.83
2024-04-16T21:25:33.533Z,18.88
2024-04-16T21:28:00.596Z,18.86
2024-04-16T21:30:27.725Z,18.87
2024-04-16T21:32:54.848Z,18.89
2024-04-16T21:35:21.974Z,18.98
2024-04-16T21:37:49.165Z,19.09
2024-04-16T21:40:16.200Z,18.90
2024-04-16T21:42:43.349Z,18.81
2024-04-16T21:45:10.464Z,18.82
2024-04-16T21:47:37.667Z,18.86
2024-04-16T21:50:05.382Z,18.84
2024-04-16T21:52:32.519Z,18.73
2024-04-16T21:54:59.589Z,18.71
2024-04-16T21:57:26.744Z,18.72
2024-04-16T21:59:53.783Z,18.77
2024-04-16T22:02:21.652Z,18.71
2024-04-16T22:04:48.998Z,18.67
2024-04-16T22:07:18.156Z,18.67
2024-04-16T22:09:47.791Z,18.70
2024-04-16T22:12:15.737Z,18.79
2024-04-16T22:14:42.881Z,18.83
2024-04-16T22:17:09.991Z,18.82
2024-04-16T22:19:37.035Z,18.84
2024-04-16T22:22:04.483Z,18.87
2024-04-16T22:24:31.510Z,18.92
2024-04-16T22:26:58.554Z,18.92
2024-04-16T22:29:25.715Z,18.93
2024-04-16T22:31:52.885Z,18.91
2024-04-16T22:34:20.084Z,18.90
2024-04-16T22:36:47.140Z,18.84
2024-04-16T22:39:14.186Z,18.78
2024-04-16T22:41:41.248Z,18.73
2024-04-16T22:44:08.301Z,18.67
2024-04-16T22:46:36.138Z,18.62
2024-04-16T22:49:03.325Z,18.58
2024-04-16T22:51:30.405Z,18.50
2024-04-16T22:54:00.445Z,18.48
2024-04-16T22:56:28.075Z,18.51
2024-04-16T22:58:55.201Z,18.51
2024-04-16T23:01:24.964Z,18.47
2024-04-16T23:03:52.427Z,18.45
2024-04-16T23:06:19.539Z,18.45
2024-04-16T23:08:46.630Z,18.44
2024-04-16T23:11:14.727Z,18.36
2024-04-16T23:13:45.640Z,18.27
2024-04-16T23:16:13.230Z,18.37
2024-04-16T23:18:40.315Z,18.36
2024-04-16T23:21:07.427Z,18.04
2024-04-16T23:23:34.487Z,17.91
2024-04-16T23:26:01.593Z,17.94
2024-04-16T23:28:28.730Z,17.88
2024-04-16T23:30:55.821Z,17.88
2024-04-16T23:33:22.828Z,17.81
2024-04-16T23:35:49.909Z,17.78
2024-04-16T23:38:16.984Z,17.78
2024-04-16T23:40:47.975Z,17.78
2024-04-16T23:43:14.939Z,17.71
2024-04-16T23:45:41.956Z,17.63
2024-04-16T23:48:09.129Z,17.65
2024-04-16T23:50:36.236Z,17.66
2024-04-16T23:53:04.780Z,17.62
2024-04-16T23:55:31.855Z,17.63
2024-04-16T23:57:58.935Z,17.66
